sensor_id;sensor_type;location;lat;lon;timestamp;pressure;altitude;pressure_sealevel;temperature;humidity
73103;BME280;61294;65.988;29.172;2023-02-28T00:02:20;97253.34;;;-7.38;81.03
73103;BME280;61294;65.988;29.172;2023-02-28T00:04:46;97187.75;;;-7.76;81.24
73103;BME280;61294;65.988;29.172;2023-02-28T00:07:27;97248.47;;;-7.51;82.50
73103;BME280;61294;65.988;29.172;2023-02-28T00:09:53;97224.94;;;-7.64;82.32
73103;BME280;61294;65.988;29.172;2023-02-28T00:12:19;97265.78;;;-7.46;82.26
73103;BME280;61294;65.988;29.172;2023-02-28T00:14:45;97266.50;;;-7.48;80.64
73103;BME280;61294;65.988;29.172;2023-02-28T00:17:10;97236.66;;;-7.69;81.17
73103;BME280;61294;65.988;29.172;2023-02-28T00:19:36;97261.50;;;-7.66;82.70
73103;BME280;61294;65.988;29.172;2023-02-28T00:22:02;97230.06;;;-7.83;82.40
73103;BME280;61294;65.988;29.172;2023-02-28T00:24:27;97248.94;;;-7.80;82.46
73103;BME280;61294;65.988;29.172;2023-02-28T00:26:53;97229.63;;;-7.92;82.27
73103;BME280;61294;65.988;29.172;2023-02-28T00:29:19;97274.16;;;-7.69;84.25
73103;BME280;61294;65.988;29.172;2023-02-28T00:31:45;97282.69;;;-7.69;83.20
73103;BME280;61294;65.988;29.172;2023-02-28T00:34:10;97250.97;;;-7.92;83.19
73103;BME280;61294;65.988;29.172;2023-02-28T00:36:36;97240.63;;;-7.95;82.26
73103;BME280;61294;65.988;29.172;2023-02-28T00:39:02;97283.63;;;-7.86;83.16
73103;BME280;61294;65.988;29.172;2023-02-28T00:41:27;97261.38;;;-8.07;82.82
73103;BME280;61294;65.988;29.172;2023-02-28T00:43:53;97284.81;;;-7.98;83.68
73103;BME280;61294;65.988;29.172;2023-02-28T00:46:19;97279.84;;;-8.12;84.50
73103;BME280;61294;65.988;29.172;2023-02-28T00:48:44;97284.91;;;-8.14;84.40
73103;BME280;61294;65.988;29.172;2023-02-28T00:51:10;97277.69;;;-8.23;84.40
73103;BME280;61294;65.988;29.172;2023-02-28T00:53:36;97281.63;;;-8.29;84.75
73103;BME280;61294;65.988;29.172;2023-02-28T00:56:02;97268.25;;;-8.43;85.22
73103;BME280;61294;65.988;29.172;2023-02-28T00:58:28;97276.19;;;-8.37;84.05
73103;BME280;61294;65.988;29.172;2023-02-28T01:00:54;97297.53;;;-8.35;85.38
73103;BME280;61294;65.988;29.172;2023-02-28T01:03:20;97273.13;;;-8.48;84.82
73103;BME280;61294;65.988;29.172;2023-02-28T01:05:47;97301.16;;;-8.50;85.23
73103;BME280;61294;65.988;29.172;2023-02-28T01:08:13;97293.34;;;-8.53;86.13
73103;BME280;61294;65.988;29.172;2023-02-28T01:10:39;97310.22;;;-8.56;85.42
73103;BME280;61294;65.988;29.172;2023-02-28T01:13:05;97320.44;;;-8.56;85.58
73103;BME280;61294;65.988;29.172;2023-02-28T01:15:31;97301.00;;;-8.71;86.30
73103;BME280;61294;65.988;29.172;2023-02-28T01:17:58;97328.03;;;-8.58;85.76
73103;BME280;61294;65.988;29.172;2023-02-28T01:20:24;97332.09;;;-8.61;85.53
73103;BME280;61294;65.988;29.172;2023-02-28T01:22:49;97334.34;;;-8.68;85.48
73103;BME280;61294;65.988;29.172;2023-02-28T01:25:15;97296.53;;;-8.93;85.23
73103;BME280;61294;65.988;29.172;2023-02-28T01:27:41;97312.38;;;-8.82;85.85
73103;BME280;61294;65.988;29.172;2023-02-28T01:30:08;97318.13;;;-8.86;85.12
73103;BME280;61294;65.988;29.172;2023-02-28T01:32:35;97323.06;;;-8.89;85.56
73103;BME280;61294;65.988;29.172;2023-02-28T01:35:01;97327.88;;;-8.95;85.77
73103;BME280;61294;65.988;29.172;2023-02-28T01:37:27;97350.50;;;-8.85;86.85
73103;BME280;61294;65.988;29.172;2023-02-28T01:39:53;97367.56;;;-8.84;86.62
73103;BME280;61294;65.988;29.172;2023-02-28T01:42:19;97351.97;;;-8.90;86.71
73103;BME280;61294;65.988;29.172;2023-02-28T01:47:36;97334.44;;;-9.00;86.41
73103;BME280;61294;65.988;29.172;2023-02-28T01:50:07;97342.25;;;-8.97;85.77
73103;BME280;61294;65.988;29.172;2023-02-28T01:52:35;97378.28;;;-8.91;86.29
73103;BME280;61294;65.988;29.172;2023-02-28T01:55:03;97369.28;;;-9.01;87.27
73103;BME280;61294;65.988;29.172;2023-02-28T01:57:36;97365.13;;;-9.15;86.96
73103;BME280;61294;65.988;29.172;2023-02-28T02:00:11;97387.84;;;-9.04;86.88
73103;BME280;61294;65.988;29.172;2023-02-28T02:02:39;97389.44;;;-9.06;86.67
73103;BME280;61294;65.988;29.172;2023-02-28T02:05:17;97359.25;;;-9.31;87.02
73103;BME280;61294;65.988;29.172;2023-02-28T02:07:46;97401.09;;;-9.11;87.05
73103;BME280;61294;65.988;29.172;2023-02-28T02:10:21;97398.69;;;-9.08;87.21
73103;BME280;61294;65.988;29.172;2023-02-28T02:15:22;97410.97;;;-9.17;87.24
73103;BME280;61294;65.988;29.172;2023-02-28T02:17:56;97396.22;;;-9.23;87.89
73103;BME280;61294;65.988;29.172;2023-02-28T02:20:38;97388.50;;;-9.24;87.94
73103;BME280;61294;65.988;29.172;2023-02-28T02:23:30;97404.75;;;-9.22;88.15
73103;BME280;61294;65.988;29.172;2023-02-28T02:29:08;97409.31;;;-9.33;88.21
73103;BME280;61294;65.988;29.172;2023-02-28T02:34:45;97424.03;;;-9.44;88.53
73103;BME280;61294;65.988;29.172;2023-02-28T02:40:14;97438.06;;;-9.35;89.15
73103;BME280;61294;65.988;29.172;2023-02-28T02:42:54;97433.75;;;-9.37;89.24
73103;BME280;61294;65.988;29.172;2023-02-28T02:45:24;97429.06;;;-9.45;89.55
73103;BME280;61294;65.988;29.172;2023-02-28T02:47:51;97413.44;;;-9.51;88.96
73103;BME280;61294;65.988;29.172;2023-02-28T02:50:24;97434.84;;;-9.48;89.03
73103;BME280;61294;65.988;29.172;2023-02-28T02:52:55;97438.22;;;-9.49;89.56
73103;BME280;61294;65.988;29.172;2023-02-28T02:55:23;97425.75;;;-9.59;89.22
73103;BME280;61294;65.988;29.172;2023-02-28T02:57:59;97428.09;;;-9.47;89.93
73103;BME280;61294;65.988;29.172;2023-02-28T03:00:34;97430.16;;;-9.57;89.73
73103;BME280;61294;65.988;29.172;2023-02-28T03:03:03;97439.63;;;-9.54;90.25
73103;BME280;61294;65.988;29.172;2023-02-28T03:05:35;97448.16;;;-9.54;89.30
73103;BME280;61294;65.988;29.172;2023-02-28T03:08:05;97461.72;;;-9.55;89.87
73103;BME280;61294;65.988;29.172;2023-02-28T03:10:35;97430.03;;;-9.75;89.34
73103;BME280;61294;65.988;29.172;2023-02-28T03:28:00;97445.59;;;-9.85;91.23
73103;BME280;61294;65.988;29.172;2023-02-28T03:35:43;97472.56;;;-9.74;90.89
73103;BME280;61294;65.988;29.172;2023-02-28T03:38:54;97470.22;;;-9.85;91.34
73103;BME280;61294;65.988;29.172;2023-02-28T03:41:52;97461.78;;;-9.84;91.61
73103;BME280;61294;65.988;29.172;2023-02-28T03:44:23;97476.34;;;-9.82;91.18
73103;BME280;61294;65.988;29.172;2023-02-28T03:47:17;97474.97;;;-9.92;91.51
73103;BME280;61294;65.988;29.172;2023-02-28T03:50:07;97454.78;;;-10.03;91.04
73103;BME280;61294;65.988;29.172;2023-02-28T03:52:44;97479.78;;;-9.81;91.00
73103;BME280;61294;65.988;29.172;2023-02-28T03:55:15;97477.41;;;-9.93;90.17
73103;BME280;61294;65.988;29.172;2023-02-28T03:57:54;97461.97;;;-9.96;90.05
73103;BME280;61294;65.988;29.172;2023-02-28T04:00:29;97468.81;;;-9.95;90.14
73103;BME280;61294;65.988;29.172;2023-02-28T04:02:58;97446.25;;;-10.04;90.01
73103;BME280;61294;65.988;29.172;2023-02-28T04:05:24;97472.16;;;-9.96;89.80
73103;BME280;61294;65.988;29.172;2023-02-28T04:07:51;97477.25;;;-9.96;90.05
73103;BME280;61294;65.988;29.172;2023-02-28T04:10:17;97474.81;;;-10.10;90.06
73103;BME280;61294;65.988;29.172;2023-02-28T04:12:43;97435.19;;;-10.36;90.37
73103;BME280;61294;65.988;29.172;2023-02-28T04:15:09;97477.88;;;-10.00;89.91
73103;BME280;61294;65.988;29.172;2023-02-28T04:17:36;97504.78;;;-10.06;90.47
73103;BME280;61294;65.988;29.172;2023-02-28T04:20:02;97508.88;;;-10.08;90.60
73103;BME280;61294;65.988;29.172;2023-02-28T04:22:29;97511.94;;;-10.13;90.14
73103;BME280;61294;65.988;29.172;2023-02-28T04:24:54;97513.09;;;-10.08;90.62
73103;BME280;61294;65.988;29.172;2023-02-28T04:27:21;97480.44;;;-10.15;90.35
73103;BME280;61294;65.988;29.172;2023-02-28T04:29:47;97512.25;;;-10.09;90.44
73103;BME280;61294;65.988;29.172;2023-02-28T04:32:12;97510.66;;;-10.07;90.76
73103;BME280;61294;65.988;29.172;2023-02-28T04:34:39;97513.19;;;-10.07;91.11
73103;BME280;61294;65.988;29.172;2023-02-28T04:37:05;97513.38;;;-10.03;90.67
73103;BME280;61294;65.988;29.172;2023-02-28T04:39:35;97513.63;;;-10.14;91.19
73103;BME280;61294;65.988;29.172;2023-02-28T04:42:01;97514.31;;;-10.16;91.17
73103;BME280;61294;65.988;29.172;2023-02-28T04:44:27;97517.31;;;-10.24;91.87
73103;BME280;61294;65.988;29.172;2023-02-28T04:46:52;97531.13;;;-10.20;92.68
73103;BME280;61294;65.988;29.172;2023-02-28T04:49:18;97528.50;;;-10.21;92.79
73103;BME280;61294;65.988;29.172;2023-02-28T04:51:44;97486.44;;;-10.45;92.71
73103;BME280;61294;65.988;29.172;2023-02-28T04:54:10;97469.41;;;-10.46;92.72
73103;BME280;61294;65.988;29.172;2023-02-28T04:56:35;97495.38;;;-10.36;93.06
73103;BME280;61294;65.988;29.172;2023-02-28T04:59:01;97510.13;;;-10.31;93.27
73103;BME280;61294;65.988;29.172;2023-02-28T05:01:29;97510.75;;;-10.35;94.21
73103;BME280;61294;65.988;29.172;2023-02-28T05:03:57;97508.44;;;-10.30;93.90
73103;BME280;61294;65.988;29.172;2023-02-28T05:06:25;97453.34;;;-10.60;94.01
73103;BME280;61294;65.988;29.172;2023-02-28T05:08:52;97506.00;;;-10.29;93.85
73103;BME280;61294;65.988;29.172;2023-02-28T05:11:25;97479.59;;;-10.46;93.97
73103;BME280;61294;65.988;29.172;2023-02-28T05:13:51;97497.16;;;-10.35;94.25
73103;BME280;61294;65.988;29.172;2023-02-28T05:16:18;97496.19;;;-10.37;94.28
73103;BME280;61294;65.988;29.172;2023-02-28T05:18:44;97508.25;;;-10.33;94.77
73103;BME280;61294;65.988;29.172;2023-02-28T05:21:39;97478.63;;;-10.48;94.64
73103;BME280;61294;65.988;29.172;2023-02-28T05:24:09;97518.91;;;-10.41;94.75
73103;BME280;61294;65.988;29.172;2023-02-28T05:26:36;97507.34;;;-10.35;94.65
73103;BME280;61294;65.988;29.172;2023-02-28T05:29:03;97505.72;;;-10.33;94.19
73103;BME280;61294;65.988;29.172;2023-02-28T05:31:29;97491.09;;;-10.37;94.44
73103;BME280;61294;65.988;29.172;2023-02-28T05:33:54;97491.28;;;-10.34;94.43
73103;BME280;61294;65.988;29.172;2023-02-28T05:36:20;97510.81;;;-10.33;94.40
73103;BME280;61294;65.988;29.172;2023-02-28T05:38:47;97521.84;;;-10.34;94.50
73103;BME280;61294;65.988;29.172;2023-02-28T05:41:13;97504.34;;;-10.43;94.73
73103;BME280;61294;65.988;29.172;2023-02-28T05:43:39;97523.47;;;-10.35;94.80
73103;BME280;61294;65.988;29.172;2023-02-28T05:46:07;97502.06;;;-10.38;94.59
73103;BME280;61294;65.988;29.172;2023-02-28T05:48:34;97523.63;;;-10.32;94.08
73103;BME280;61294;65.988;29.172;2023-02-28T05:51:02;97530.94;;;-10.38;94.51
73103;BME280;61294;65.988;29.172;2023-02-28T05:53:28;97522.63;;;-10.35;94.19
73103;BME280;61294;65.988;29.172;2023-02-28T05:55:54;97532.81;;;-10.35;94.40
73103;BME280;61294;65.988;29.172;2023-02-28T05:58:20;97542.53;;;-10.28;93.76
73103;BME280;61294;65.988;29.172;2023-02-28T06:00:46;97497.66;;;-10.56;93.58
73103;BME280;61294;65.988;29.172;2023-02-28T06:03:12;97514.72;;;-10.40;93.62
73103;BME280;61294;65.988;29.172;2023-02-28T06:05:37;97535.13;;;-10.24;93.25
73103;BME280;61294;65.988;29.172;2023-02-28T06:08:04;97534.28;;;-10.24;92.97
73103;BME280;61294;65.988;29.172;2023-02-28T06:10:35;97530.66;;;-10.28;92.96
73103;BME280;61294;65.988;29.172;2023-02-28T06:13:02;97529.19;;;-10.24;93.05
73103;BME280;61294;65.988;29.172;2023-02-28T06:15:29;97548.34;;;-10.16;92.23
73103;BME280;61294;65.988;29.172;2023-02-28T06:17:55;97538.50;;;-10.10;92.01
73103;BME280;61294;65.988;29.172;2023-02-28T06:20:24;97544.47;;;-10.09;91.75
73103;BME280;61294;65.988;29.172;2023-02-28T06:22:51;97470.47;;;-10.42;91.20
73103;BME280;61294;65.988;29.172;2023-02-28T06:25:19;97537.88;;;-10.06;90.57
73103;BME280;61294;65.988;29.172;2023-02-28T06:27:45;97552.47;;;-10.03;90.79
73103;BME280;61294;65.988;29.172;2023-02-28T06:30:11;97557.66;;;-10.01;90.53
73103;BME280;61294;65.988;29.172;2023-02-28T06:32:38;97514.31;;;-10.16;90.41
73103;BME280;61294;65.988;29.172;2023-02-28T06:35:05;97554.41;;;-9.99;90.19
73103;BME280;61294;65.988;29.172;2023-02-28T06:37:31;97550.53;;;-9.92;90.00
73103;BME280;61294;65.988;29.172;2023-02-28T06:39:57;97555.09;;;-9.86;89.88
73103;BME280;61294;65.988;29.172;2023-02-28T06:42:24;97561.88;;;-9.87;89.78
73103;BME280;61294;65.988;29.172;2023-02-28T06:44:57;97529.88;;;-9.97;89.31
73103;BME280;61294;65.988;29.172;2023-02-28T06:47:23;97563.28;;;-9.77;88.82
73103;BME280;61294;65.988;29.172;2023-02-28T06:49:50;97557.47;;;-9.75;89.07
73103;BME280;61294;65.988;29.172;2023-02-28T06:52:16;97521.97;;;-9.86;89.18
73103;BME280;61294;65.988;29.172;2023-02-28T06:54:41;97559.38;;;-9.71;88.41
73103;BME280;61294;65.988;29.172;2023-02-28T06:57:07;97557.03;;;-9.67;88.49
73103;BME280;61294;65.988;29.172;2023-02-28T06:59:33;97581.78;;;-9.65;88.86
73103;BME280;61294;65.988;29.172;2023-02-28T07:02:00;97569.50;;;-9.57;87.91
73103;BME280;61294;65.988;29.172;2023-02-28T07:04:28;97564.31;;;-9.59;88.05
73103;BME280;61294;65.988;29.172;2023-02-28T07:06:54;97567.97;;;-9.54;87.26
73103;BME280;61294;65.988;29.172;2023-02-28T07:09:22;97548.56;;;-9.66;87.81
73103;BME280;61294;65.988;29.172;2023-02-28T07:11:48;97564.03;;;-9.48;87.89
73103;BME280;61294;65.988;29.172;2023-02-28T07:14:14;97507.69;;;-9.68;87.33
73103;BME280;61294;65.988;29.172;2023-02-28T07:16:40;97562.94;;;-9.37;87.29
73103;BME280;61294;65.988;29.172;2023-02-28T07:19:05;97553.53;;;-9.38;87.49
73103;BME280;61294;65.988;29.172;2023-02-28T07:21:31;97559.69;;;-9.34;87.08
73103;BME280;61294;65.988;29.172;2023-02-28T07:23:57;97560.72;;;-9.31;87.04
73103;BME280;61294;65.988;29.172;2023-02-28T07:26:23;97557.31;;;-9.31;87.12
73103;BME280;61294;65.988;29.172;2023-02-28T07:28:48;97571.19;;;-9.26;86.95
73103;BME280;61294;65.988;29.172;2023-02-28T07:31:15;97534.44;;;-9.30;86.18
73103;BME280;61294;65.988;29.172;2023-02-28T07:33:41;97563.09;;;-9.19;86.14
73103;BME280;61294;65.988;29.172;2023-02-28T07:36:10;97546.25;;;-9.15;86.34
73103;BME280;61294;65.988;29.172;2023-02-28T07:38:42;97555.69;;;-9.14;86.22
73103;BME280;61294;65.988;29.172;2023-02-28T07:41:09;97534.69;;;-9.25;86.57
73103;BME280;61294;65.988;29.172;2023-02-28T07:43:35;97556.31;;;-9.02;86.07
73103;BME280;61294;65.988;29.172;2023-02-28T07:46:03;97553.69;;;-9.04;86.07
73103;BME280;61294;65.988;29.172;2023-02-28T07:48:29;97553.16;;;-8.98;85.89
73103;BME280;61294;65.988;29.172;2023-02-28T07:50:56;97543.38;;;-8.90;85.02
73103;BME280;61294;65.988;29.172;2023-02-28T07:53:22;97550.38;;;-8.86;85.01
73103;BME280;61294;65.988;29.172;2023-02-28T07:55:48;97559.84;;;-8.83;85.41
73103;BME280;61294;65.988;29.172;2023-02-28T07:58:13;97559.16;;;-8.81;85.21
73103;BME280;61294;65.988;29.172;2023-02-28T08:00:39;97552.38;;;-8.80;85.13
73103;BME280;61294;65.988;29.172;2023-02-28T08:03:05;97561.31;;;-8.72;84.97
73103;BME280;61294;65.988;29.172;2023-02-28T08:05:30;97557.88;;;-8.73;85.30
73103;BME280;61294;65.988;29.172;2023-02-28T08:07:56;97558.38;;;-8.63;84.70
73103;BME280;61294;65.988;29.172;2023-02-28T08:10:22;97551.34;;;-8.51;84.10
73103;BME280;61294;65.988;29.172;2023-02-28T08:12:49;97543.75;;;-8.50;84.32
73103;BME280;61294;65.988;29.172;2023-02-28T08:15:15;97547.00;;;-8.36;82.91
73103;BME280;61294;65.988;29.172;2023-02-28T08:17:41;97539.47;;;-6.72;81.58
73103;BME280;61294;65.988;29.172;2023-02-28T08:20:07;97542.63;;;-6.78;76.36
73103;BME280;61294;65.988;29.172;2023-02-28T08:22:34;97547.56;;;-7.18;78.40
73103;BME280;61294;65.988;29.172;2023-02-28T08:25:00;97498.53;;;-7.09;77.05
73103;BME280;61294;65.988;29.172;2023-02-28T08:27:25;97540.06;;;-4.20;68.67
73103;BME280;61294;65.988;29.172;2023-02-28T08:29:51;97527.44;;;-0.37;56.50
73103;BME280;61294;65.988;29.172;2023-02-28T08:32:17;97509.28;;;1.13;47.63
73103;BME280;61294;65.988;29.172;2023-02-28T08:34:42;97517.97;;;1.84;47.24
73103;BME280;61294;65.988;29.172;2023-02-28T08:37:08;97513.16;;;-1.36;50.48
73103;BME280;61294;65.988;29.172;2023-02-28T08:39:35;97530.50;;;-3.72;57.54
73103;BME280;61294;65.988;29.172;2023-02-28T08:42:02;97531.34;;;-0.95;53.42
73103;BME280;61294;65.988;29.172;2023-02-28T08:44:28;97537.50;;;0.92;47.04
73103;BME280;61294;65.988;29.172;2023-02-28T08:46:54;97517.41;;;2.12;43.95
73103;BME280;61294;65.988;29.172;2023-02-28T08:49:19;97542.91;;;3.77;43.35
73103;BME280;61294;65.988;29.172;2023-02-28T08:51:45;97537.88;;;4.18;39.55
73103;BME280;61294;65.988;29.172;2023-02-28T08:54:11;97536.19;;;4.51;38.51
73103;BME280;61294;65.988;29.172;2023-02-28T08:56:41;97524.94;;;4.76;38.33
73103;BME280;61294;65.988;29.172;2023-02-28T08:59:09;97531.00;;;5.08;37.64
73103;BME280;61294;65.988;29.172;2023-02-28T09:01:34;97505.75;;;5.22;36.46
73103;BME280;61294;65.988;29.172;2023-02-28T09:04:02;97516.22;;;4.66;37.17
73103;BME280;61294;65.988;29.172;2023-02-28T09:06:28;97518.81;;;4.70;38.90
73103;BME280;61294;65.988;29.172;2023-02-28T09:08:57;97522.44;;;-0.26;44.46
73103;BME280;61294;65.988;29.172;2023-02-28T09:11:27;97549.41;;;-1.67;48.80
73103;BME280;61294;65.988;29.172;2023-02-28T09:13:53;97510.88;;;-0.86;48.33
73103;BME280;61294;65.988;29.172;2023-02-28T09:16:21;97534.97;;;3.47;42.06
73103;BME280;61294;65.988;29.172;2023-02-28T09:18:47;97520.44;;;5.62;36.10
73103;BME280;61294;65.988;29.172;2023-02-28T09:21:15;97537.81;;;5.84;35.88
73103;BME280;61294;65.988;29.172;2023-02-28T09:23:43;97561.47;;;2.93;38.52
73103;BME280;61294;65.988;29.172;2023-02-28T09:26:18;97542.97;;;6.08;36.07
73103;BME280;61294;65.988;29.172;2023-02-28T09:28:45;97518.56;;;6.02;35.79
73103;BME280;61294;65.988;29.172;2023-02-28T09:31:14;97532.19;;;7.63;32.91
73103;BME280;61294;65.988;29.172;2023-02-28T09:33:40;97523.34;;;7.71;31.10
73103;BME280;61294;65.988;29.172;2023-02-28T09:36:07;97509.84;;;7.26;31.34
73103;BME280;61294;65.988;29.172;2023-02-28T09:38:33;97519.81;;;7.75;30.30
73103;BME280;61294;65.988;29.172;2023-02-28T09:41:02;97540.00;;;7.66;31.17
73103;BME280;61294;65.988;29.172;2023-02-28T09:43:50;97535.13;;;2.53;36.70
73103;BME280;61294;65.988;29.172;2023-02-28T09:46:43;97557.88;;;0.21;41.56
73103;BME280;61294;65.988;29.172;2023-02-28T09:49:25;97589.94;;;-2.57;48.09
73103;BME280;61294;65.988;29.172;2023-02-28T09:52:05;97599.75;;;-3.01;50.71
73103;BME280;61294;65.988;29.172;2023-02-28T09:54:35;97591.84;;;-3.60;53.43
73103;BME280;61294;65.988;29.172;2023-02-28T09:59:50;97569.72;;;-4.52;57.20
73103;BME280;61294;65.988;29.172;2023-02-28T10:02:38;97586.69;;;-4.57;57.94
73103;BME280;61294;65.988;29.172;2023-02-28T10:05:13;97570.06;;;-2.90;55.78
73103;BME280;61294;65.988;29.172;2023-02-28T10:08:14;97582.50;;;-1.53;51.28
73103;BME280;61294;65.988;29.172;2023-02-28T10:10:50;97553.22;;;0.03;47.38
73103;BME280;61294;65.988;29.172;2023-02-28T10:13:26;97563.72;;;1.75;43.61
73103;BME280;61294;65.988;29.172;2023-02-28T10:15:59;97553.03;;;2.25;41.86
73103;BME280;61294;65.988;29.172;2023-02-28T10:18:47;97520.69;;;2.90;40.89
73103;BME280;61294;65.988;29.172;2023-02-28T10:21:28;97562.78;;;3.52;39.10
73103;BME280;61294;65.988;29.172;2023-02-28T10:24:16;97580.69;;;2.17;40.60
73103;BME280;61294;65.988;29.172;2023-02-28T10:26:45;97583.84;;;0.72;42.71
73103;BME280;61294;65.988;29.172;2023-02-28T10:29:13;97569.78;;;-0.73;45.51
73103;BME280;61294;65.988;29.172;2023-02-28T10:31:39;97559.38;;;-2.13;49.17
73103;BME280;61294;65.988;29.172;2023-02-28T10:34:05;97587.63;;;-0.83;49.09
73103;BME280;61294;65.988;29.172;2023-02-28T10:36:31;97600.91;;;-1.05;48.11
73103;BME280;61294;65.988;29.172;2023-02-28T10:38:57;97577.44;;;-3.01;51.85
73103;BME280;61294;65.988;29.172;2023-02-28T10:41:32;97615.81;;;-2.83;53.48
73103;BME280;61294;65.988;29.172;2023-02-28T10:44:19;97559.63;;;-3.49;54.54
73103;BME280;61294;65.988;29.172;2023-02-28T10:46:45;97564.03;;;-2.01;52.27
73103;BME280;61294;65.988;29.172;2023-02-28T10:49:20;97605.00;;;-3.77;54.78
73103;BME280;61294;65.988;29.172;2023-02-28T10:51:47;97617.34;;;-2.01;52.69
73103;BME280;61294;65.988;29.172;2023-02-28T10:54:26;97602.41;;;-0.40;49.83
73103;BME280;61294;65.988;29.172;2023-02-28T10:59:33;97597.34;;;0.08;44.51
73103;BME280;61294;65.988;29.172;2023-02-28T11:01:59;97603.38;;;1.05;43.98
73103;BME280;61294;65.988;29.172;2023-02-28T11:07:19;97607.44;;;4.37;37.68
73103;BME280;61294;65.988;29.172;2023-02-28T11:09:51;97590.00;;;5.97;35.26
73103;BME280;61294;65.988;29.172;2023-02-28T11:12:38;97565.81;;;5.05;35.84
73103;BME280;61294;65.988;29.172;2023-02-28T11:15:26;97592.25;;;0.12;42.58
73103;BME280;61294;65.988;29.172;2023-02-28T11:20:39;97562.56;;;-3.09;51.44
73103;BME280;61294;65.988;29.172;2023-02-28T11:23:12;97577.88;;;-3.67;54.57
73103;BME280;61294;65.988;29.172;2023-02-28T11:25:39;97598.84;;;-3.81;54.96
73103;BME280;61294;65.988;29.172;2023-02-28T11:28:22;97560.41;;;-4.02;55.66
73103;BME280;61294;65.988;29.172;2023-02-28T11:31:14;97613.16;;;-3.39;55.20
73103;BME280;61294;65.988;29.172;2023-02-28T11:33:53;97633.50;;;-3.71;56.26
73103;BME280;61294;65.988;29.172;2023-02-28T11:36:22;97616.09;;;-4.02;56.80
73103;BME280;61294;65.988;29.172;2023-02-28T11:38:50;97609.69;;;-3.89;57.48
73103;BME280;61294;65.988;29.172;2023-02-28T11:41:51;97631.38;;;-3.33;56.27
73103;BME280;61294;65.988;29.172;2023-02-28T11:44:47;97616.91;;;-3.29;55.06
73103;BME280;61294;65.988;29.172;2023-02-28T11:47:44;97618.31;;;-3.39;56.26
73103;BME280;61294;65.988;29.172;2023-02-28T11:50:42;97618.19;;;-3.68;56.05
73103;BME280;61294;65.988;29.172;2023-02-28T11:55:59;97614.09;;;-0.56;49.54
73103;BME280;61294;65.988;29.172;2023-02-28T12:04:20;97624.44;;;-1.62;48.86
73103;BME280;61294;65.988;29.172;2023-02-28T12:06:59;97608.47;;;-2.98;52.62
73103;BME280;61294;65.988;29.172;2023-02-28T12:15:13;97626.34;;;-3.79;57.01
73103;BME280;61294;65.988;29.172;2023-02-28T12:18:07;97621.06;;;-3.58;57.28
73103;BME280;61294;65.988;29.172;2023-02-28T12:24:07;97589.47;;;1.01;44.79
73103;BME280;61294;65.988;29.172;2023-02-28T12:26:38;97628.88;;;-2.19;50.92
73103;BME280;61294;65.988;29.172;2023-02-28T12:32:01;97575.72;;;-3.29;54.10
73103;BME280;61294;65.988;29.172;2023-02-28T12:34:38;97575.81;;;-2.70;53.65
73103;BME280;61294;65.988;29.172;2023-02-28T12:37:12;97608.06;;;-2.54;53.35
73103;BME280;61294;65.988;29.172;2023-02-28T12:39:49;97612.94;;;-3.45;55.25
73103;BME280;61294;65.988;29.172;2023-02-28T12:42:29;97589.91;;;-3.92;56.81
73103;BME280;61294;65.988;29.172;2023-02-28T12:45:01;97608.72;;;-3.93;57.27
73103;BME280;61294;65.988;29.172;2023-02-28T12:47:28;97621.31;;;-4.01;58.73
73103;BME280;61294;65.988;29.172;2023-02-28T12:49:55;97593.66;;;-4.06;58.02
73103;BME280;61294;65.988;29.172;2023-02-28T13:00:21;97621.72;;;-4.37;60.25
73103;BME280;61294;65.988;29.172;2023-02-28T13:14:29;97623.16;;;-5.11;63.47
73103;BME280;61294;65.988;29.172;2023-02-28T13:19:27;97569.53;;;-5.46;63.81
73103;BME280;61294;65.988;29.172;2023-02-28T13:21:55;97633.59;;;-5.07;63.92
73103;BME280;61294;65.988;29.172;2023-02-28T13:24:49;97635.31;;;-5.07;64.90
73103;BME280;61294;65.988;29.172;2023-02-28T13:29:42;97646.19;;;-5.13;63.30
73103;BME280;61294;65.988;29.172;2023-02-28T13:34:40;97628.97;;;-4.94;63.71
73103;BME280;61294;65.988;29.172;2023-02-28T13:39:49;97646.19;;;-4.69;63.21
73103;BME280;61294;65.988;29.172;2023-02-28T13:47:53;97637.47;;;-4.95;64.14
73103;BME280;61294;65.988;29.172;2023-02-28T13:50:33;97610.97;;;-4.94;63.69
73103;BME280;61294;65.988;29.172;2023-02-28T13:58:35;97587.88;;;-5.15;63.75
73103;BME280;61294;65.988;29.172;2023-02-28T14:02:08;97643.13;;;-5.04;64.87
73103;BME280;61294;65.988;29.172;2023-02-28T14:04:41;97637.31;;;-5.21;64.83
73103;BME280;61294;65.988;29.172;2023-02-28T14:07:09;97573.31;;;-5.59;65.97
73103;BME280;61294;65.988;29.172;2023-02-28T14:09:54;97635.34;;;-5.27;66.24
73103;BME280;61294;65.988;29.172;2023-02-28T14:12:53;97622.28;;;-5.33;65.54
73103;BME280;61294;65.988;29.172;2023-02-28T14:15:44;97623.66;;;-5.41;66.07
73103;BME280;61294;65.988;29.172;2023-02-28T14:18:21;97553.53;;;-5.82;66.79
73103;BME280;61294;65.988;29.172;2023-02-28T14:20:48;97617.69;;;-5.61;66.21
73103;BME280;61294;65.988;29.172;2023-02-28T14:23:39;97603.91;;;-5.63;67.45
73103;BME280;61294;65.988;29.172;2023-02-28T14:34:53;97616.19;;;-5.56;67.39
73103;BME280;61294;65.988;29.172;2023-02-28T14:37:33;97622.94;;;-5.58;67.31
73103;BME280;61294;65.988;29.172;2023-02-28T14:40:03;97613.38;;;-5.62;68.20
73103;BME280;61294;65.988;29.172;2023-02-28T14:42:35;97576.28;;;-5.90;68.68
73103;BME280;61294;65.988;29.172;2023-02-28T14:45:03;97558.78;;;-6.00;68.88
73103;BME280;61294;65.988;29.172;2023-02-28T14:47:33;97608.44;;;-5.77;69.53
73103;BME280;61294;65.988;29.172;2023-02-28T14:50:02;97616.84;;;-5.81;69.99
73103;BME280;61294;65.988;29.172;2023-02-28T14:52:32;97560.06;;;-6.10;70.04
73103;BME280;61294;65.988;29.172;2023-02-28T14:55:01;97604.78;;;-5.84;70.92
73103;BME280;61294;65.988;29.172;2023-02-28T14:57:33;97616.84;;;-5.81;71.32
73103;BME280;61294;65.988;29.172;2023-02-28T15:00:21;97578.66;;;-5.95;71.42
73103;BME280;61294;65.988;29.172;2023-02-28T15:02:47;97559.88;;;-6.15;71.88
73103;BME280;61294;65.988;29.172;2023-02-28T15:07:45;97538.16;;;-6.23;71.90